Bologna / Borgo Panigale Airport LIPE

Flugplatz Daten

Name: Bologna / Borgo Panigale Airport

Ident: LIPE

Lat: 44,53540039

Long: 11,2887001

Platzhöhe: 123 ft

IataCode: BLQ

City: Bologna

Homepage: http://www.bologna-airport.it/?LN=UK

Metar

2021/12/03 23:50
LIPE 032350Z 19007KT CAVOK 03/01 Q1015

Taf

2021/12/03 00:00
TAF LIPE 032300Z 0400/0424 VRB06KT 6000 SCT040
TEMPO 0402/0406 1500 BR
Gewünschte Webcam nicht vorhanden? Dann fügen Sie eine hinzu. Sie wird dann so schnell wie möglich freigeschaltet
Url: Title: